createdAt,value
2019-03-31T00:00:32.288Z,63.09
2019-03-31T00:03:05.171Z,63.67
2019-03-31T00:05:37.729Z,63.44
2019-03-31T00:08:10.927Z,63.90
2019-03-31T00:10:43.383Z,63.56
2019-03-31T00:13:15.549Z,63.38
2019-03-31T00:15:47.880Z,63.78
2019-03-31T00:18:20.097Z,63.63
2019-03-31T00:20:52.269Z,63.49
2019-03-31T00:23:24.541Z,63.84
2019-03-31T00:25:56.608Z,63.91
2019-03-31T00:28:28.826Z,64.14
2019-03-31T00:31:00.804Z,64.37
2019-03-31T00:33:32.939Z,63.85
2019-03-31T00:36:05.174Z,64.91
2019-03-31T00:38:37.316Z,64.16
2019-03-31T00:41:09.488Z,63.32
2019-03-31T00:43:41.700Z,63.73
2019-03-31T00:46:13.910Z,63.29
2019-03-31T00:48:46.123Z,64.83
2019-03-31T00:51:18.466Z,63.76
2019-03-31T00:53:50.234Z,63.97
2019-03-31T00:56:22.383Z,63.55
2019-03-31T00:58:54.432Z,64.43
2019-03-31T01:01:36.673Z,63.02
2019-03-31T01:04:08.313Z,63.57
2019-03-31T01:06:40.786Z,63.71
2019-03-31T01:09:32.393Z,64.23
2019-03-31T01:12:06.873Z,64.00
2019-03-31T01:14:39.014Z,64.04
2019-03-31T01:17:12.618Z,63.45
2019-03-31T01:19:45.047Z,64.51
2019-03-31T01:22:17.108Z,63.34
2019-03-31T01:24:49.385Z,63.85
2019-03-31T01:27:21.451Z,63.91
2019-03-31T01:29:53.725Z,64.49
2019-03-31T01:32:26.068Z,63.78
2019-03-31T01:34:58.368Z,63.34
2019-03-31T01:37:30.573Z,63.58
2019-03-31T01:40:03.215Z,62.97
2019-03-31T01:42:36.712Z,63.54
2019-03-31T01:45:10.855Z,63.20
2019-03-31T01:47:43.121Z,63.79
2019-03-31T01:50:17.272Z,63.71
2019-03-31T01:52:49.225Z,63.43
2019-03-31T01:55:21.367Z,64.23
2019-03-31T01:57:53.351Z,63.74
2019-03-31T02:00:33.447Z,63.69
2019-03-31T02:03:05.570Z,63.80
2019-03-31T02:05:37.674Z,64.24
2019-03-31T02:08:10.263Z,64.38
2019-03-31T02:10:42.093Z,64.44
2019-03-31T02:13:13.986Z,64.35
2019-03-31T02:15:46.073Z,64.44
2019-03-31T02:18:18.081Z,64.77
2019-03-31T02:20:49.919Z,64.78
2019-03-31T02:23:21.835Z,64.32
2019-03-31T02:25:53.660Z,64.70
2019-03-31T02:28:25.464Z,65.18
2019-03-31T02:30:57.525Z,65.28
2019-03-31T02:33:29.360Z,64.74
2019-03-31T02:36:01.414Z,64.44
2019-03-31T02:38:33.649Z,63.68
2019-03-31T02:41:05.910Z,65.17
2019-03-31T02:43:37.941Z,65.24
2019-03-31T02:46:09.963Z,65.26
2019-03-31T02:48:41.953Z,64.85
2019-03-31T02:51:14.395Z,65.09
2019-03-31T02:53:46.418Z,65.39
2019-03-31T02:56:21.195Z,65.46
2019-03-31T02:58:55.731Z,65.28
2019-03-31T03:01:28.995Z,64.50
2019-03-31T03:04:03.163Z,64.67
2019-03-31T03:06:37.291Z,64.93
2019-03-31T03:09:09.559Z,63.71
2019-03-31T03:11:42.970Z,64.71
2019-03-31T03:14:16.337Z,64.48
2019-03-31T03:16:48.279Z,64.98
2019-03-31T03:19:20.282Z,64.31
2019-03-31T03:21:52.494Z,64.17
2019-03-31T03:24:24.565Z,65.41
2019-03-31T03:26:56.493Z,64.82
2019-03-31T03:29:28.362Z,63.99
2019-03-31T03:32:00.416Z,64.24
2019-03-31T03:34:32.357Z,63.92
2019-03-31T03:37:04.632Z,64.76
2019-03-31T03:39:36.558Z,64.12
2019-03-31T03:42:08.769Z,65.13
2019-03-31T03:44:40.681Z,64.92
2019-03-31T03:47:12.705Z,65.45
2019-03-31T03:49:44.686Z,65.81
2019-03-31T03:52:16.703Z,64.85
2019-03-31T03:54:48.530Z,64.64
2019-03-31T03:57:21.414Z,65.36
2019-03-31T03:59:53.364Z,65.04
2019-03-31T04:02:25.269Z,66.09
2019-03-31T04:04:57.070Z,65.59
2019-03-31T04:07:28.908Z,65.31
2019-03-31T04:10:01.037Z,65.48
2019-03-31T04:12:33.052Z,65.20
2019-03-31T04:15:05.098Z,65.36
2019-03-31T04:17:37.112Z,64.81
2019-03-31T04:20:09.078Z,64.78
2019-03-31T04:22:40.906Z,65.03
2019-03-31T04:25:12.876Z,65.59
2019-03-31T04:27:44.684Z,65.74
2019-03-31T04:30:16.500Z,65.64
2019-03-31T04:32:48.632Z,64.83
2019-03-31T04:35:20.611Z,65.01
2019-03-31T04:37:52.635Z,65.37
2019-03-31T04:40:24.795Z,66.13
2019-03-31T04:42:56.912Z,65.61
2019-03-31T04:45:28.891Z,65.78
2019-03-31T04:48:00.819Z,65.74
2019-03-31T04:50:32.743Z,65.90
2019-03-31T04:53:04.853Z,65.26
2019-03-31T04:55:36.791Z,65.80
2019-03-31T04:58:08.591Z,65.96
2019-03-31T05:00:40.515Z,65.43
2019-03-31T05:03:12.400Z,65.80
2019-03-31T05:05:44.254Z,65.79
2019-03-31T05:08:16.077Z,64.71
2019-03-31T05:10:48.031Z,65.24
2019-03-31T05:13:19.967Z,65.70
2019-03-31T05:15:51.920Z,65.47
2019-03-31T05:18:23.751Z,64.65
2019-03-31T05:20:55.787Z,63.84
2019-03-31T05:23:27.775Z,64.00
2019-03-31T05:26:00.912Z,63.10
2019-03-31T05:28:33.044Z,63.05
2019-03-31T05:31:05.193Z,62.89
2019-03-31T05:33:37.012Z,62.67
2019-03-31T05:36:08.812Z,62.57
2019-03-31T05:38:40.773Z,62.22
2019-03-31T05:41:12.866Z,62.40
2019-03-31T05:43:44.949Z,61.20
2019-03-31T05:46:17.022Z,61.16
2019-03-31T05:48:48.972Z,60.57
2019-03-31T05:51:21.120Z,59.64
2019-03-31T05:53:53.104Z,58.63
2019-03-31T05:56:25.246Z,58.58
2019-03-31T05:58:57.315Z,58.05
2019-03-31T06:01:29.640Z,58.11
2019-03-31T06:04:01.625Z,57.90
2019-03-31T06:06:36.830Z,57.47
2019-03-31T06:09:08.715Z,56.99
2019-03-31T06:11:40.610Z,56.88
2019-03-31T06:14:12.671Z,56.44
2019-03-31T06:16:44.729Z,56.39
2019-03-31T06:19:16.933Z,56.29
2019-03-31T06:21:48.874Z,56.04
2019-03-31T06:24:20.935Z,55.78
2019-03-31T06:26:52.934Z,55.40
2019-03-31T06:29:24.961Z,54.96
2019-03-31T06:31:56.923Z,54.53
2019-03-31T06:34:28.804Z,54.40
2019-03-31T06:37:00.712Z,54.31
2019-03-31T06:39:34.343Z,54.26
2019-03-31T06:42:06.512Z,53.71
2019-03-31T06:44:38.398Z,53.89
2019-03-31T06:47:10.328Z,53.54
2019-03-31T06:49:42.192Z,53.29
2019-03-31T06:52:14.206Z,52.50
2019-03-31T06:54:46.205Z,52.75
2019-03-31T06:57:18.170Z,52.59
2019-03-31T06:59:50.360Z,52.32
2019-03-31T07:02:22.231Z,52.63
2019-03-31T07:05:00.792Z,51.69
2019-03-31T07:07:27.877Z,51.51
2019-03-31T07:09:59.886Z,51.34
2019-03-31T07:12:31.995Z,51.18
2019-03-31T07:15:05.786Z,51.24
2019-03-31T07:17:37.591Z,50.89
2019-03-31T07:20:11.605Z,50.22
2019-03-31T07:22:43.444Z,49.50
2019-03-31T07:25:16.047Z,49.32
2019-03-31T07:27:47.993Z,49.12
2019-03-31T07:30:20.981Z,48.60
2019-03-31T07:32:52.833Z,48.42
2019-03-31T07:35:24.803Z,48.03
2019-03-31T07:37:56.661Z,47.81
2019-03-31T07:40:28.665Z,47.64
2019-03-31T07:43:00.642Z,46.71
2019-03-31T07:45:32.550Z,47.00
2019-03-31T07:48:07.987Z,45.85
2019-03-31T07:50:38.131Z,45.24
2019-03-31T07:53:10.122Z,44.35
2019-03-31T07:55:41.945Z,44.23
2019-03-31T07:58:13.786Z,44.47
2019-03-31T08:00:45.707Z,43.90
2019-03-31T08:03:17.738Z,43.29
2019-03-31T08:05:49.587Z,43.11
2019-03-31T08:08:21.511Z,42.61
2019-03-31T08:10:53.497Z,42.16
2019-03-31T08:13:25.318Z,41.93
2019-03-31T08:15:57.240Z,42.06
2019-03-31T08:18:29.324Z,41.67
2019-03-31T08:21:01.613Z,41.74
2019-03-31T08:23:33.543Z,42.54
2019-03-31T08:26:05.627Z,42.32
2019-03-31T08:28:37.625Z,42.05
2019-03-31T08:31:09.603Z,42.59
2019-03-31T08:33:41.573Z,42.71
2019-03-31T08:36:13.410Z,41.10
2019-03-31T08:38:45.413Z,41.67
2019-03-31T08:41:17.399Z,40.59
2019-03-31T08:43:49.325Z,41.05
2019-03-31T08:46:21.198Z,40.08
2019-03-31T08:48:53.076Z,40.17
2019-03-31T08:51:25.024Z,39.32
2019-03-31T08:53:57.049Z,40.27
2019-03-31T08:56:28.893Z,39.88
2019-03-31T08:59:00.972Z,39.05
2019-03-31T09:01:32.968Z,39.15
2019-03-31T09:04:04.863Z,38.59
2019-03-31T09:06:36.703Z,38.12
2019-03-31T09:09:09.992Z,38.13
2019-03-31T09:11:42.076Z,37.04
2019-03-31T09:14:13.902Z,37.71
2019-03-31T09:16:45.930Z,37.41
2019-03-31T09:19:17.919Z,37.70
2019-03-31T09:21:49.808Z,36.66
2019-03-31T09:24:21.767Z,36.55
2019-03-31T09:26:53.626Z,36.73
2019-03-31T09:29:25.451Z,35.43
2019-03-31T09:31:57.335Z,35.43
2019-03-31T09:34:29.313Z,33.70
2019-03-31T09:37:01.467Z,36.25
2019-03-31T09:39:33.349Z,35.75
2019-03-31T09:42:05.333Z,34.53
2019-03-31T09:44:37.266Z,34.75
2019-03-31T09:47:09.308Z,34.18
2019-03-31T09:49:41.226Z,32.49
2019-03-31T09:52:13.060Z,34.57
2019-03-31T09:54:44.874Z,33.17
2019-03-31T09:57:16.733Z,33.93
2019-03-31T09:59:48.654Z,32.70
2019-03-31T10:02:20.558Z,33.10
2019-03-31T10:04:52.558Z,32.35
2019-03-31T10:07:24.723Z,33.71
2019-03-31T10:09:56.873Z,32.53
2019-03-31T10:12:28.867Z,32.49
2019-03-31T10:15:00.744Z,31.85
2019-03-31T10:17:32.670Z,32.29
2019-03-31T10:20:05.422Z,32.85
2019-03-31T10:22:37.561Z,32.10
2019-03-31T10:25:13.213Z,33.15
2019-03-31T10:27:44.561Z,33.28
2019-03-31T10:30:22.955Z,31.22
2019-03-31T10:32:54.803Z,30.47
2019-03-31T10:35:26.633Z,31.06
2019-03-31T10:37:59.747Z,31.06
2019-03-31T10:40:31.695Z,30.27
2019-03-31T10:43:03.776Z,29.99
2019-03-31T10:45:35.782Z,29.90
2019-03-31T10:48:19.759Z,30.07
2019-03-31T10:50:42.339Z,30.73
2019-03-31T10:53:14.473Z,32.36
2019-03-31T10:55:46.460Z,30.27
2019-03-31T10:58:18.607Z,30.53
2019-03-31T11:00:50.699Z,31.11
2019-03-31T11:03:22.875Z,31.59
2019-03-31T11:05:54.838Z,31.97
2019-03-31T11:08:26.871Z,30.79
2019-03-31T11:10:58.797Z,30.26
2019-03-31T11:13:30.663Z,30.27
2019-03-31T11:16:02.556Z,30.87
2019-03-31T11:18:34.737Z,29.72
2019-03-31T11:21:13.241Z,29.33
2019-03-31T11:23:45.433Z,29.14
2019-03-31T11:26:17.475Z,30.23
2019-03-31T11:28:49.456Z,30.00
2019-03-31T11:31:21.441Z,29.27
2019-03-31T11:33:53.273Z,28.92
2019-03-31T11:36:25.348Z,28.47
2019-03-31T11:38:57.344Z,28.65
2019-03-31T11:41:29.227Z,29.45
2019-03-31T11:44:01.232Z,29.74
2019-03-31T11:46:33.097Z,29.43
2019-03-31T11:49:05.361Z,28.93
2019-03-31T11:51:37.392Z,29.76
2019-03-31T11:54:09.502Z,29.06
2019-03-31T11:56:42.376Z,29.38
2019-03-31T11:59:14.326Z,29.33
2019-03-31T12:01:46.249Z,29.86
2019-03-31T12:04:18.364Z,29.88
2019-03-31T12:06:50.365Z,29.79
2019-03-31T12:09:22.400Z,30.18
2019-03-31T12:11:54.496Z,30.60
2019-03-31T12:14:26.401Z,30.45
2019-03-31T12:16:58.416Z,30.47
2019-03-31T12:19:30.349Z,30.94
2019-03-31T12:22:02.381Z,31.77
2019-03-31T12:24:34.582Z,31.06
2019-03-31T12:27:06.564Z,31.02
2019-03-31T12:29:38.446Z,30.98
2019-03-31T12:32:10.268Z,31.02
2019-03-31T12:34:42.339Z,31.19
2019-03-31T12:37:14.524Z,31.19
2019-03-31T12:39:46.750Z,30.76
2019-03-31T12:42:18.727Z,31.15
2019-03-31T12:44:51.007Z,30.45
2019-03-31T12:47:22.939Z,29.96
2019-03-31T12:49:54.933Z,29.71
2019-03-31T12:52:26.972Z,29.58
2019-03-31T12:55:00.344Z,29.49
2019-03-31T12:57:32.250Z,30.25
2019-03-31T13:00:04.714Z,29.75
2019-03-31T13:02:36.697Z,29.76
2019-03-31T13:05:08.819Z,29.49
2019-03-31T13:07:40.805Z,29.25
2019-03-31T13:10:15.793Z,29.42
2019-03-31T13:12:47.912Z,29.85
2019-03-31T13:15:19.870Z,30.11
2019-03-31T13:17:52.066Z,29.87
2019-03-31T13:20:24.091Z,29.47
2019-03-31T13:22:56.283Z,29.42
2019-03-31T13:25:28.344Z,29.39
2019-03-31T13:28:00.311Z,28.80
2019-03-31T13:30:32.288Z,29.19
2019-03-31T13:33:05.379Z,28.98
2019-03-31T13:35:37.493Z,28.66
2019-03-31T13:38:11.348Z,29.54
2019-03-31T13:40:43.158Z,28.96
2019-03-31T13:43:15.136Z,28.94
2019-03-31T13:45:47.321Z,29.11
2019-03-31T13:48:19.177Z,29.10
2019-03-31T13:50:51.159Z,29.16
2019-03-31T13:53:23.008Z,29.02
2019-03-31T13:55:55.019Z,29.20
2019-03-31T13:58:28.603Z,29.04
2019-03-31T14:01:00.990Z,29.17
2019-03-31T14:03:33.013Z,29.24
2019-03-31T14:06:05.182Z,29.41
2019-03-31T14:08:37.253Z,28.28
2019-03-31T14:11:09.428Z,28.75
2019-03-31T14:13:42.441Z,28.52
2019-03-31T14:16:14.297Z,29.25
2019-03-31T14:18:46.155Z,28.76
2019-03-31T14:21:18.099Z,28.13
2019-03-31T14:23:49.949Z,28.29
2019-03-31T14:26:22.020Z,28.58
2019-03-31T14:28:53.937Z,28.37
2019-03-31T14:31:25.950Z,28.33
2019-03-31T14:33:57.927Z,27.80
2019-03-31T14:36:30.103Z,28.34
2019-03-31T14:39:02.349Z,29.32
2019-03-31T14:41:34.442Z,28.43
2019-03-31T14:44:06.771Z,27.85
2019-03-31T14:46:38.971Z,28.38
2019-03-31T14:49:10.809Z,28.54
2019-03-31T14:51:42.725Z,28.47
2019-03-31T14:54:14.532Z,28.37
2019-03-31T14:56:46.471Z,28.53
2019-03-31T14:59:18.575Z,28.94
2019-03-31T15:01:50.511Z,28.68
2019-03-31T15:04:22.463Z,29.39
2019-03-31T15:06:54.375Z,29.46
2019-03-31T15:09:26.219Z,28.96
2019-03-31T15:11:58.402Z,29.33
2019-03-31T15:14:30.309Z,29.21
2019-03-31T15:17:02.192Z,28.56
2019-03-31T15:19:34.332Z,28.92
2019-03-31T15:22:06.260Z,29.02
2019-03-31T15:24:38.182Z,29.42
2019-03-31T15:27:10.220Z,28.96
2019-03-31T15:29:42.063Z,28.91
2019-03-31T15:32:14.091Z,28.87
2019-03-31T15:34:45.928Z,28.99
2019-03-31T15:37:17.850Z,28.93
2019-03-31T15:39:49.866Z,29.26
2019-03-31T15:42:21.957Z,29.19
2019-03-31T15:44:53.921Z,29.60
2019-03-31T15:47:25.733Z,30.02
2019-03-31T15:49:57.560Z,29.67
2019-03-31T15:52:29.403Z,30.14
2019-03-31T15:55:01.323Z,30.33
2019-03-31T15:57:34.511Z,30.35
2019-03-31T16:00:08.444Z,31.66
2019-03-31T16:02:40.786Z,31.83
2019-03-31T16:05:13.215Z,31.94
2019-03-31T16:07:47.513Z,31.76
2019-03-31T16:10:18.923Z,31.17
2019-03-31T16:12:50.606Z,32.53
2019-03-31T16:15:21.932Z,32.16
2019-03-31T16:17:53.300Z,31.79
2019-03-31T16:20:24.633Z,32.17
2019-03-31T16:22:56.089Z,31.92
2019-03-31T16:25:30.650Z,31.60
2019-03-31T16:28:21.153Z,31.85
2019-03-31T16:30:52.558Z,32.02
2019-03-31T16:33:24.045Z,31.97
2019-03-31T16:35:55.378Z,31.52
2019-03-31T16:38:26.811Z,31.00
2019-03-31T16:40:58.374Z,31.69
2019-03-31T16:43:30.034Z,32.29
2019-03-31T16:46:01.248Z,32.47
2019-03-31T16:48:32.751Z,32.17
2019-03-31T16:51:04.437Z,32.89
2019-03-31T16:53:36.731Z,32.82
2019-03-31T16:56:07.998Z,33.82
2019-03-31T16:58:39.329Z,33.71
2019-03-31T17:01:10.692Z,33.38
2019-03-31T17:03:42.312Z,34.31
2019-03-31T17:06:13.599Z,33.71
2019-03-31T17:08:44.934Z,34.05
2019-03-31T17:11:17.257Z,33.32
2019-03-31T17:13:48.662Z,33.25
2019-03-31T17:16:20.023Z,33.36
2019-03-31T17:18:51.281Z,33.72
2019-03-31T17:21:22.883Z,33.70
2019-03-31T17:23:55.150Z,33.89
2019-03-31T17:26:26.716Z,33.53
2019-03-31T17:28:58.084Z,33.59
2019-03-31T17:31:29.367Z,33.49
2019-03-31T17:34:01.403Z,33.81
2019-03-31T17:36:32.885Z,34.40
2019-03-31T17:39:05.707Z,33.67
2019-03-31T17:41:37.878Z,34.51
2019-03-31T17:44:09.447Z,34.11
2019-03-31T17:46:40.705Z,34.29
2019-03-31T17:49:12.093Z,34.09
2019-03-31T17:51:43.386Z,34.13
2019-03-31T17:54:14.749Z,34.57
2019-03-31T17:56:46.086Z,34.41
2019-03-31T17:59:17.256Z,34.63
2019-03-31T18:01:48.401Z,35.00
2019-03-31T18:04:19.594Z,34.93
2019-03-31T18:06:50.766Z,34.90
2019-03-31T18:09:22.864Z,35.53
2019-03-31T18:11:53.971Z,35.09
2019-03-31T18:14:25.074Z,35.47
2019-03-31T18:16:56.250Z,35.42
2019-03-31T18:19:27.275Z,35.92
2019-03-31T18:21:58.291Z,36.39
2019-03-31T18:24:29.483Z,36.79
2019-03-31T18:27:00.525Z,37.28
2019-03-31T18:29:31.764Z,37.19
2019-03-31T18:32:02.950Z,37.37
2019-03-31T18:34:34.068Z,38.04
2019-03-31T18:37:05.219Z,38.02
2019-03-31T18:39:36.345Z,38.51
2019-03-31T18:42:07.367Z,38.73
2019-03-31T18:44:38.474Z,38.86
2019-03-31T18:47:09.501Z,39.23
2019-03-31T18:49:40.600Z,39.66
2019-03-31T18:52:11.682Z,40.32
2019-03-31T18:55:04.675Z,39.53
2019-03-31T18:57:57.373Z,39.65
2019-03-31T19:00:39.649Z,40.35
2019-03-31T19:03:20.047Z,41.60
2019-03-31T19:06:18.247Z,41.90
2019-03-31T19:09:19.137Z,42.86
2019-03-31T19:12:07.990Z,42.83
2019-03-31T19:15:07.827Z,42.39
2019-03-31T19:18:07.715Z,42.19
2019-03-31T19:21:11.491Z,42.91
2019-03-31T19:23:43.309Z,42.93
2019-03-31T19:26:29.505Z,42.96
2019-03-31T19:29:17.253Z,43.30
2019-03-31T19:32:06.035Z,45.12
2019-03-31T19:34:56.079Z,43.85
2019-03-31T19:37:52.754Z,43.31
2019-03-31T19:41:04.559Z,44.14
2019-03-31T19:43:43.508Z,44.44
2019-03-31T19:46:33.563Z,44.10
2019-03-31T19:49:16.586Z,43.90
2019-03-31T19:52:21.724Z,45.15
2019-03-31T19:55:23.989Z,45.76
2019-03-31T19:58:13.754Z,45.59
2019-03-31T20:01:12.993Z,45.28
2019-03-31T20:04:02.139Z,45.32
2019-03-31T20:07:04.323Z,45.10
2019-03-31T20:09:44.253Z,45.48
2019-03-31T20:12:33.301Z,45.75
2019-03-31T20:15:22.586Z,46.42
2019-03-31T20:18:12.890Z,46.46
2019-03-31T20:20:54.133Z,46.67
2019-03-31T20:23:41.473Z,47.07
2019-03-31T20:26:44.020Z,47.17
2019-03-31T20:29:27.073Z,47.07
2019-03-31T20:32:23.377Z,46.63
2019-03-31T20:35:13.906Z,46.68
2019-03-31T20:37:59.387Z,46.71
2019-03-31T20:40:38.269Z,46.88
2019-03-31T20:43:23.701Z,47.02
2019-03-31T20:45:54.837Z,46.92
2019-03-31T20:48:25.963Z,47.07
2019-03-31T20:50:58.330Z,47.12
2019-03-31T20:53:29.471Z,47.43
2019-03-31T20:56:00.572Z,47.33
2019-03-31T20:58:31.879Z,47.23
2019-03-31T21:01:03.469Z,47.31
2019-03-31T21:03:34.867Z,47.78
2019-03-31T21:06:06.444Z,47.64
2019-03-31T21:08:37.714Z,47.75
2019-03-31T21:11:08.825Z,47.87
2019-03-31T21:13:39.941Z,48.01
2019-03-31T21:16:11.540Z,48.24
2019-03-31T21:18:42.755Z,48.12
2019-03-31T21:21:14.049Z,48.31
2019-03-31T21:23:45.281Z,48.15
2019-03-31T21:26:16.632Z,48.35
2019-03-31T21:28:47.955Z,48.96
2019-03-31T21:31:19.050Z,52.38
2019-03-31T21:33:50.177Z,51.15
2019-03-31T21:36:21.218Z,49.83
2019-03-31T21:38:52.304Z,50.28
2019-03-31T21:41:23.481Z,50.47
2019-03-31T21:43:54.541Z,51.10
2019-03-31T21:46:25.594Z,51.33
2019-03-31T21:48:56.810Z,51.81
2019-03-31T21:51:27.878Z,51.01
2019-03-31T21:53:58.994Z,51.09
2019-03-31T21:56:30.346Z,51.63
2019-03-31T21:59:01.617Z,51.35
2019-03-31T22:01:33.940Z,51.43
2019-03-31T22:04:05.100Z,51.42
2019-03-31T22:06:36.258Z,50.97
2019-03-31T22:09:10.911Z,51.45
2019-03-31T22:11:42.232Z,51.14
2019-03-31T22:14:13.393Z,51.07
2019-03-31T22:16:44.506Z,51.32
2019-03-31T22:19:16.459Z,50.95
2019-03-31T22:21:47.710Z,51.21
2019-03-31T22:24:18.776Z,51.83
2019-03-31T22:26:49.975Z,51.94
2019-03-31T22:29:21.052Z,52.33
2019-03-31T22:31:53.135Z,51.71
2019-03-31T22:34:24.333Z,51.36
2019-03-31T22:36:55.428Z,51.12
2019-03-31T22:39:26.473Z,50.62
2019-03-31T22:41:57.604Z,50.58
2019-03-31T22:44:28.696Z,50.88
2019-03-31T22:46:59.832Z,51.27
2019-03-31T22:49:31.016Z,51.11
2019-03-31T22:52:02.136Z,50.94
2019-03-31T22:54:33.186Z,50.92
2019-03-31T22:57:04.272Z,52.19
2019-03-31T22:59:35.370Z,52.33
2019-03-31T23:02:06.630Z,52.17
2019-03-31T23:04:37.634Z,51.97
2019-03-31T23:07:08.673Z,52.13
2019-03-31T23:09:39.766Z,52.71
2019-03-31T23:12:10.895Z,52.45
2019-03-31T23:14:41.940Z,52.39
2019-03-31T23:17:13.094Z,52.64
2019-03-31T23:19:44.264Z,52.89
2019-03-31T23:22:15.454Z,53.26
2019-03-31T23:24:47.631Z,53.27
2019-03-31T23:27:18.815Z,53.58
2019-03-31T23:29:49.911Z,53.42
2019-03-31T23:32:21.044Z,53.19
2019-03-31T23:34:52.206Z,53.41
2019-03-31T23:37:23.234Z,54.81
2019-03-31T23:39:54.222Z,54.09
2019-03-31T23:42:25.279Z,54.45
2019-03-31T23:44:56.327Z,54.83
2019-03-31T23:47:27.520Z,55.32
2019-03-31T23:49:58.570Z,54.93
2019-03-31T23:52:29.608Z,55.47
2019-03-31T23:55:00.728Z,55.04
2019-03-31T23:57:41.314Z,55.25
